createdAt,value
2018-01-02T00:13:39.425Z,97236.16
2018-01-02T00:34:14.703Z,97268.91
2018-01-02T00:54:52.171Z,97300.06
2018-01-02T01:33:30.909Z,97354.05
2018-01-02T01:54:06.181Z,97378.48
2018-01-02T02:14:40.577Z,97391.25
2018-01-02T02:35:14.834Z,97401.81
2018-01-02T02:55:50.064Z,97425.55
2018-01-02T03:16:22.293Z,97449.13
2018-01-02T03:36:58.241Z,97482.05
2018-01-02T03:57:35.352Z,97463.22
2018-01-02T04:18:07.945Z,97494.20
2018-01-02T04:38:44.673Z,97501.67
2018-01-02T04:59:19.397Z,97515.83
2018-01-02T05:40:55.111Z,97601.43
2018-01-02T06:01:29.106Z,97628.34
2018-01-02T06:22:08.595Z,97671.17
2018-01-02T06:42:40.570Z,97717.41
2018-01-02T07:03:14.616Z,97760.04
2018-01-02T07:23:48.044Z,97795.50
2018-01-02T07:44:23.461Z,97823.45
2018-01-02T08:04:56.436Z,97887.88
2018-01-02T08:25:28.637Z,97959.02
2018-01-02T08:46:01.150Z,98004.90
2018-01-02T09:06:36.105Z,98040.02
2018-01-02T09:27:09.232Z,98078.60
2018-01-02T09:47:44.810Z,98106.30
2018-01-02T10:08:17.622Z,98095.14
2018-01-02T10:28:49.845Z,98072.00
2018-01-02T10:49:23.365Z,98110.60
2018-01-02T11:10:00.617Z,98108.55
2018-01-02T11:30:36.559Z,98103.31
2018-01-02T11:51:12.750Z,98117.77
2018-01-02T12:11:47.105Z,98095.30
2018-01-02T12:32:28.213Z,98071.56
2018-01-02T12:53:01.828Z,98068.80
2018-01-02T13:13:33.839Z,98068.73
2018-01-02T13:52:09.548Z,98083.55
2018-01-02T14:12:44.822Z,98101.30
2018-01-02T14:33:16.098Z,98083.92
2018-01-02T14:53:52.624Z,98068.91
2018-01-02T15:14:23.879Z,98026.42
2018-01-02T15:34:58.838Z,98021.07
2018-01-02T15:55:34.115Z,98009.97
2018-01-02T16:16:15.223Z,98015.58
2018-01-02T16:36:46.501Z,98006.37
2018-01-02T16:57:19.986Z,97978.03
2018-01-02T17:17:53.051Z,97957.82
2018-01-02T17:38:25.867Z,97943.09
2018-01-02T17:59:01.447Z,97888.96
2018-01-02T18:19:38.557Z,97881.98
2018-01-02T18:40:13.828Z,97833.06
2018-01-02T19:00:52.381Z,97803.31
2018-01-02T19:21:29.866Z,97796.33
2018-01-02T19:42:09.782Z,97727.25
2018-01-02T20:02:44.757Z,97679.33
2018-01-02T20:23:20.566Z,97661.92
2018-01-02T20:43:55.648Z,97606.02
2018-01-02T21:04:28.430Z,97594.99
2018-01-02T21:07:19.233Z,97587.06
2018-01-02T21:27:51.424Z,97572.48
2018-01-02T21:48:29.967Z,97537.68
2018-01-02T22:09:05.197Z,97491.09
2018-01-02T22:29:39.086Z,97460.05
2018-01-02T22:50:12.625Z,97384.48
2018-01-02T23:10:45.633Z,97323.75
2018-01-02T23:31:18.751Z,97246.52
2018-01-02T23:51:53.107Z,97203.87
